sensor_id;sensor_type;location;lat;lon;timestamp;pressure;altitude;pressure_sealevel;temperature
35582;BMP180;21687;48.900;9.188;2022-09-02T00:01:23;98524.00;;;12.90
35582;BMP180;21687;48.900;9.188;2022-09-02T00:03:51;98512.00;;;12.80
35582;BMP180;21687;48.900;9.188;2022-09-02T00:06:19;98509.00;;;12.70
35582;BMP180;21687;48.900;9.188;2022-09-02T00:08:46;98502.00;;;12.70
35582;BMP180;21687;48.900;9.188;2022-09-02T00:11:17;98505.00;;;12.60
35582;BMP180;21687;48.900;9.188;2022-09-02T00:13:44;98508.00;;;12.60
35582;BMP180;21687;48.900;9.188;2022-09-02T00:16:11;98506.00;;;12.70
35582;BMP180;21687;48.900;9.188;2022-09-02T00:18:39;98497.00;;;12.60
35582;BMP180;21687;48.900;9.188;2022-09-02T00:21:06;98494.00;;;12.60
35582;BMP180;21687;48.900;9.188;2022-09-02T00:23:33;98494.00;;;12.60
35582;BMP180;21687;48.900;9.188;2022-09-02T00:26:00;98499.00;;;12.50
35582;BMP180;21687;48.900;9.188;2022-09-02T00:28:26;98491.00;;;12.50
35582;BMP180;21687;48.900;9.188;2022-09-02T00:30:52;98500.00;;;12.50
35582;BMP180;21687;48.900;9.188;2022-09-02T00:33:18;98484.00;;;12.30
35582;BMP180;21687;48.900;9.188;2022-09-02T00:35:45;98483.00;;;12.30
35582;BMP180;21687;48.900;9.188;2022-09-02T00:38:11;98478.00;;;12.20
35582;BMP180;21687;48.900;9.188;2022-09-02T00:40:38;98472.00;;;12.20
35582;BMP180;21687;48.900;9.188;2022-09-02T00:43:08;98477.00;;;12.10
35582;BMP180;21687;48.900;9.188;2022-09-02T00:45:35;98485.00;;;12.10
35582;BMP180;21687;48.900;9.188;2022-09-02T00:48:04;98480.00;;;11.90
35582;BMP180;21687;48.900;9.188;2022-09-02T00:50:33;98475.00;;;11.80
35582;BMP180;21687;48.900;9.188;2022-09-02T00:53:05;98475.00;;;11.70
35582;BMP180;21687;48.900;9.188;2022-09-02T00:55:40;98476.00;;;11.80
35582;BMP180;21687;48.900;9.188;2022-09-02T00:58:14;98475.00;;;11.70
35582;BMP180;21687;48.900;9.188;2022-09-02T01:00:43;98467.00;;;11.70
35582;BMP180;21687;48.900;9.188;2022-09-02T01:03:13;98469.00;;;11.70
35582;BMP180;21687;48.900;9.188;2022-09-02T01:05:44;98482.00;;;11.70
35582;BMP180;21687;48.900;9.188;2022-09-02T01:08:23;98477.00;;;11.60
35582;BMP180;21687;48.900;9.188;2022-09-02T01:10:51;98488.00;;;11.60
35582;BMP180;21687;48.900;9.188;2022-09-02T01:13:21;98481.00;;;11.60
35582;BMP180;21687;48.900;9.188;2022-09-02T01:15:54;98480.00;;;11.60
35582;BMP180;21687;48.900;9.188;2022-09-02T01:18:24;98486.00;;;11.50
35582;BMP180;21687;48.900;9.188;2022-09-02T01:20:58;98490.00;;;11.50
35582;BMP180;21687;48.900;9.188;2022-09-02T01:23:25;98487.00;;;11.60
35582;BMP180;21687;48.900;9.188;2022-09-02T01:25:53;98484.00;;;11.50
35582;BMP180;21687;48.900;9.188;2022-09-02T01:28:20;98477.00;;;11.50
35582;BMP180;21687;48.900;9.188;2022-09-02T01:30:51;98478.00;;;11.50
35582;BMP180;21687;48.900;9.188;2022-09-02T01:33:20;98477.00;;;11.40
35582;BMP180;21687;48.900;9.188;2022-09-02T01:35:47;98483.00;;;11.50
35582;BMP180;21687;48.900;9.188;2022-09-02T01:38:13;98471.00;;;11.50
35582;BMP180;21687;48.900;9.188;2022-09-02T01:40:40;98475.00;;;11.40
35582;BMP180;21687;48.900;9.188;2022-09-02T01:43:10;98445.00;;;11.30
35582;BMP180;21687;48.900;9.188;2022-09-02T01:45:38;98477.00;;;11.20
35582;BMP180;21687;48.900;9.188;2022-09-02T01:48:06;98474.00;;;11.20
35582;BMP180;21687;48.900;9.188;2022-09-02T01:50:32;98465.00;;;11.20
35582;BMP180;21687;48.900;9.188;2022-09-02T01:52:59;98469.00;;;11.10
35582;BMP180;21687;48.900;9.188;2022-09-02T01:55:32;98469.00;;;11.20
35582;BMP180;21687;48.900;9.188;2022-09-02T01:57:59;98471.00;;;11.00
35582;BMP180;21687;48.900;9.188;2022-09-02T02:00:26;98465.00;;;10.90
35582;BMP180;21687;48.900;9.188;2022-09-02T02:02:52;98467.00;;;10.80
35582;BMP180;21687;48.900;9.188;2022-09-02T02:07:49;98466.00;;;10.80
35582;BMP180;21687;48.900;9.188;2022-09-02T02:10:19;98467.00;;;10.80
35582;BMP180;21687;48.900;9.188;2022-09-02T02:12:46;98471.00;;;10.70
35582;BMP180;21687;48.900;9.188;2022-09-02T02:15:16;98466.00;;;10.70
35582;BMP180;21687;48.900;9.188;2022-09-02T02:17:43;98465.00;;;10.70
35582;BMP180;21687;48.900;9.188;2022-09-02T02:20:10;98465.00;;;10.70
35582;BMP180;21687;48.900;9.188;2022-09-02T02:22:37;98467.00;;;10.70
35582;BMP180;21687;48.900;9.188;2022-09-02T02:25:05;98464.00;;;10.70
35582;BMP180;21687;48.900;9.188;2022-09-02T02:27:32;98471.00;;;10.70
35582;BMP180;21687;48.900;9.188;2022-09-02T02:29:58;98464.00;;;10.60
35582;BMP180;21687;48.900;9.188;2022-09-02T02:32:24;98467.00;;;10.60
35582;BMP180;21687;48.900;9.188;2022-09-02T02:34:52;98462.00;;;10.50
35582;BMP180;21687;48.900;9.188;2022-09-02T02:37:19;98453.00;;;10.60
35582;BMP180;21687;48.900;9.188;2022-09-02T02:39:45;98459.00;;;10.60
35582;BMP180;21687;48.900;9.188;2022-09-02T02:42:12;98455.00;;;10.50
35582;BMP180;21687;48.900;9.188;2022-09-02T02:44:39;98459.00;;;10.40
35582;BMP180;21687;48.900;9.188;2022-09-02T02:47:07;98456.00;;;10.30
35582;BMP180;21687;48.900;9.188;2022-09-02T02:49:43;98458.00;;;10.30
35582;BMP180;21687;48.900;9.188;2022-09-02T02:52:10;98453.00;;;10.30
35582;BMP180;21687;48.900;9.188;2022-09-02T02:54:39;98463.00;;;10.30
35582;BMP180;21687;48.900;9.188;2022-09-02T02:57:07;98449.00;;;10.40
35582;BMP180;21687;48.900;9.188;2022-09-02T02:59:33;98451.00;;;10.40
35582;BMP180;21687;48.900;9.188;2022-09-02T03:02:02;98448.00;;;10.50
35582;BMP180;21687;48.900;9.188;2022-09-02T03:04:28;98447.00;;;10.50
35582;BMP180;21687;48.900;9.188;2022-09-02T03:06:55;98446.00;;;10.60
35582;BMP180;21687;48.900;9.188;2022-09-02T03:09:21;98450.00;;;10.60
35582;BMP180;21687;48.900;9.188;2022-09-02T03:11:48;98449.00;;;10.60
35582;BMP180;21687;48.900;9.188;2022-09-02T03:14:14;98455.00;;;10.40
35582;BMP180;21687;48.900;9.188;2022-09-02T03:16:41;98446.00;;;10.40
35582;BMP180;21687;48.900;9.188;2022-09-02T03:19:07;98447.00;;;10.40
35582;BMP180;21687;48.900;9.188;2022-09-02T03:21:34;98452.00;;;10.30
35582;BMP180;21687;48.900;9.188;2022-09-02T03:24:00;98447.00;;;10.40
35582;BMP180;21687;48.900;9.188;2022-09-02T03:26:26;98446.00;;;10.30
35582;BMP180;21687;48.900;9.188;2022-09-02T03:28:54;98449.00;;;10.20
35582;BMP180;21687;48.900;9.188;2022-09-02T03:31:25;98449.00;;;10.20
35582;BMP180;21687;48.900;9.188;2022-09-02T03:33:52;98448.00;;;10.40
35582;BMP180;21687;48.900;9.188;2022-09-02T03:38:53;98449.00;;;10.40
35582;BMP180;21687;48.900;9.188;2022-09-02T03:41:20;98456.00;;;10.30
35582;BMP180;21687;48.900;9.188;2022-09-02T03:43:46;98453.00;;;10.20
35582;BMP180;21687;48.900;9.188;2022-09-02T03:46:13;98452.00;;;10.10
35582;BMP180;21687;48.900;9.188;2022-09-02T03:48:40;98457.00;;;10.10
35582;BMP180;21687;48.900;9.188;2022-09-02T03:51:06;98448.00;;;10.20
35582;BMP180;21687;48.900;9.188;2022-09-02T03:53:33;98432.00;;;10.20
35582;BMP180;21687;48.900;9.188;2022-09-02T03:56:08;98447.00;;;10.30
35582;BMP180;21687;48.900;9.188;2022-09-02T03:58:37;98447.00;;;10.20
35582;BMP180;21687;48.900;9.188;2022-09-02T04:01:04;98448.00;;;10.20
35582;BMP180;21687;48.900;9.188;2022-09-02T04:03:30;98446.00;;;10.10
35582;BMP180;21687;48.900;9.188;2022-09-02T04:05:57;98450.00;;;10.10
35582;BMP180;21687;48.900;9.188;2022-09-02T04:08:25;98448.00;;;10.10
35582;BMP180;21687;48.900;9.188;2022-09-02T04:10:51;98445.00;;;10.10
35582;BMP180;21687;48.900;9.188;2022-09-02T04:13:18;98443.00;;;10.10
35582;BMP180;21687;48.900;9.188;2022-09-02T04:15:45;98443.00;;;10.00
35582;BMP180;21687;48.900;9.188;2022-09-02T04:18:15;98444.00;;;9.90
35582;BMP180;21687;48.900;9.188;2022-09-02T04:20:42;98433.00;;;9.80
35582;BMP180;21687;48.900;9.188;2022-09-02T04:23:09;98443.00;;;9.70
35582;BMP180;21687;48.900;9.188;2022-09-02T04:25:40;98449.00;;;9.60
35582;BMP180;21687;48.900;9.188;2022-09-02T04:28:07;98442.00;;;9.60
35582;BMP180;21687;48.900;9.188;2022-09-02T04:30:36;98441.00;;;9.60
35582;BMP180;21687;48.900;9.188;2022-09-02T04:33:02;98440.00;;;9.70
35582;BMP180;21687;48.900;9.188;2022-09-02T04:35:29;98439.00;;;9.60
35582;BMP180;21687;48.900;9.188;2022-09-02T04:37:55;98433.00;;;9.50
35582;BMP180;21687;48.900;9.188;2022-09-02T04:40:21;98430.00;;;9.50
35582;BMP180;21687;48.900;9.188;2022-09-02T04:42:49;98428.00;;;9.50
35582;BMP180;21687;48.900;9.188;2022-09-02T04:45:16;98427.00;;;9.60
35582;BMP180;21687;48.900;9.188;2022-09-02T04:47:42;98437.00;;;9.60
35582;BMP180;21687;48.900;9.188;2022-09-02T04:50:08;98434.00;;;9.60
35582;BMP180;21687;48.900;9.188;2022-09-02T04:52:34;98444.00;;;9.60
35582;BMP180;21687;48.900;9.188;2022-09-02T04:55:01;98434.00;;;9.70
35582;BMP180;21687;48.900;9.188;2022-09-02T04:57:27;98434.00;;;9.70
35582;BMP180;21687;48.900;9.188;2022-09-02T04:59:53;98437.00;;;9.80
35582;BMP180;21687;48.900;9.188;2022-09-02T05:02:19;98445.00;;;9.80
35582;BMP180;21687;48.900;9.188;2022-09-02T05:04:46;98435.00;;;10.00
35582;BMP180;21687;48.900;9.188;2022-09-02T05:07:12;98443.00;;;10.00
35582;BMP180;21687;48.900;9.188;2022-09-02T05:09:39;98436.00;;;10.00
35582;BMP180;21687;48.900;9.188;2022-09-02T05:12:05;98436.00;;;10.10
35582;BMP180;21687;48.900;9.188;2022-09-02T05:14:32;98438.00;;;10.20
35582;BMP180;21687;48.900;9.188;2022-09-02T05:16:58;98449.00;;;10.20
35582;BMP180;21687;48.900;9.188;2022-09-02T05:19:25;98439.00;;;10.30
35582;BMP180;21687;48.900;9.188;2022-09-02T05:21:52;98436.00;;;10.40
35582;BMP180;21687;48.900;9.188;2022-09-02T05:24:21;98440.00;;;10.40
35582;BMP180;21687;48.900;9.188;2022-09-02T05:26:47;98436.00;;;10.30
35582;BMP180;21687;48.900;9.188;2022-09-02T05:29:15;98438.00;;;10.50
35582;BMP180;21687;48.900;9.188;2022-09-02T05:31:44;98439.00;;;10.70
35582;BMP180;21687;48.900;9.188;2022-09-02T05:34:10;98440.00;;;10.60
35582;BMP180;21687;48.900;9.188;2022-09-02T05:36:36;98448.00;;;10.70
35582;BMP180;21687;48.900;9.188;2022-09-02T05:39:03;98448.00;;;10.80
35582;BMP180;21687;48.900;9.188;2022-09-02T05:41:30;98440.00;;;10.90
35582;BMP180;21687;48.900;9.188;2022-09-02T05:43:59;98440.00;;;10.90
35582;BMP180;21687;48.900;9.188;2022-09-02T05:46:26;98433.00;;;10.90
35582;BMP180;21687;48.900;9.188;2022-09-02T05:48:54;98438.00;;;11.00
35582;BMP180;21687;48.900;9.188;2022-09-02T05:51:44;98432.00;;;11.10
35582;BMP180;21687;48.900;9.188;2022-09-02T05:54:17;98440.00;;;11.30
35582;BMP180;21687;48.900;9.188;2022-09-02T05:56:46;98438.00;;;11.20
35582;BMP180;21687;48.900;9.188;2022-09-02T05:59:13;98435.00;;;11.40
35582;BMP180;21687;48.900;9.188;2022-09-02T06:01:40;98434.00;;;11.60
35582;BMP180;21687;48.900;9.188;2022-09-02T06:04:07;98436.00;;;11.70
35582;BMP180;21687;48.900;9.188;2022-09-02T06:06:34;98436.00;;;11.90
35582;BMP180;21687;48.900;9.188;2022-09-02T06:09:04;98432.00;;;12.10
35582;BMP180;21687;48.900;9.188;2022-09-02T06:11:34;98437.00;;;12.20
35582;BMP180;21687;48.900;9.188;2022-09-02T06:14:06;98441.00;;;12.30
35582;BMP180;21687;48.900;9.188;2022-09-02T06:16:34;98435.00;;;12.50
35582;BMP180;21687;48.900;9.188;2022-09-02T06:19:00;98440.00;;;12.70
35582;BMP180;21687;48.900;9.188;2022-09-02T06:21:29;98436.00;;;12.70
35582;BMP180;21687;48.900;9.188;2022-09-02T06:23:55;98431.00;;;12.70
35582;BMP180;21687;48.900;9.188;2022-09-02T06:26:22;98435.00;;;12.90
35582;BMP180;21687;48.900;9.188;2022-09-02T06:28:48;98433.00;;;12.90
35582;BMP180;21687;48.900;9.188;2022-09-02T06:31:17;98429.00;;;13.10
35582;BMP180;21687;48.900;9.188;2022-09-02T06:33:45;98428.00;;;13.20
35582;BMP180;21687;48.900;9.188;2022-09-02T06:36:16;98425.00;;;13.40
35582;BMP180;21687;48.900;9.188;2022-09-02T06:38:44;98435.00;;;13.50
35582;BMP180;21687;48.900;9.188;2022-09-02T06:41:13;98421.00;;;13.60
35582;BMP180;21687;48.900;9.188;2022-09-02T06:43:40;98428.00;;;13.80
35582;BMP180;21687;48.900;9.188;2022-09-02T06:46:07;98430.00;;;13.80
35582;BMP180;21687;48.900;9.188;2022-09-02T06:48:33;98435.00;;;13.90
35582;BMP180;21687;48.900;9.188;2022-09-02T06:51:00;98436.00;;;14.00
35582;BMP180;21687;48.900;9.188;2022-09-02T06:53:26;98438.00;;;14.10
35582;BMP180;21687;48.900;9.188;2022-09-02T06:55:52;98438.00;;;14.20
35582;BMP180;21687;48.900;9.188;2022-09-02T06:58:18;98432.00;;;14.50
35582;BMP180;21687;48.900;9.188;2022-09-02T07:00:45;98444.00;;;14.90
35582;BMP180;21687;48.900;9.188;2022-09-02T07:03:11;98438.00;;;15.20
35582;BMP180;21687;48.900;9.188;2022-09-02T07:06:05;98440.00;;;15.50
35582;BMP180;21687;48.900;9.188;2022-09-02T07:08:39;98436.00;;;15.70
35582;BMP180;21687;48.900;9.188;2022-09-02T07:11:10;98439.00;;;16.00
35582;BMP180;21687;48.900;9.188;2022-09-02T07:13:40;98441.00;;;16.40
35582;BMP180;21687;48.900;9.188;2022-09-02T07:16:06;98438.00;;;16.40
35582;BMP180;21687;48.900;9.188;2022-09-02T07:18:33;98437.00;;;16.50
35582;BMP180;21687;48.900;9.188;2022-09-02T07:21:00;98430.00;;;16.20
35582;BMP180;21687;48.900;9.188;2022-09-02T07:23:26;98429.00;;;16.10
35582;BMP180;21687;48.900;9.188;2022-09-02T07:25:53;98430.00;;;16.00
35582;BMP180;21687;48.900;9.188;2022-09-02T07:28:21;98425.00;;;16.00
35582;BMP180;21687;48.900;9.188;2022-09-02T07:30:48;98426.00;;;16.30
35582;BMP180;21687;48.900;9.188;2022-09-02T07:33:14;98425.00;;;16.70
35582;BMP180;21687;48.900;9.188;2022-09-02T07:35:41;98417.00;;;17.00
35582;BMP180;21687;48.900;9.188;2022-09-02T07:38:08;98419.00;;;17.50
35582;BMP180;21687;48.900;9.188;2022-09-02T07:40:36;98417.00;;;18.00
35582;BMP180;21687;48.900;9.188;2022-09-02T07:43:05;98412.00;;;18.20
35582;BMP180;21687;48.900;9.188;2022-09-02T07:45:32;98420.00;;;18.20
35582;BMP180;21687;48.900;9.188;2022-09-02T07:47:59;98414.00;;;18.00
35582;BMP180;21687;48.900;9.188;2022-09-02T07:50:26;98424.00;;;18.30
35582;BMP180;21687;48.900;9.188;2022-09-02T07:52:57;98424.00;;;18.50
35582;BMP180;21687;48.900;9.188;2022-09-02T07:55:24;98424.00;;;18.30
35582;BMP180;21687;48.900;9.188;2022-09-02T07:57:51;98418.00;;;18.50
35582;BMP180;21687;48.900;9.188;2022-09-02T08:00:20;98419.00;;;18.70
35582;BMP180;21687;48.900;9.188;2022-09-02T08:02:48;98421.00;;;19.00
35582;BMP180;21687;48.900;9.188;2022-09-02T08:05:15;98411.00;;;19.30
35582;BMP180;21687;48.900;9.188;2022-09-02T08:07:41;98418.00;;;19.50
35582;BMP180;21687;48.900;9.188;2022-09-02T08:10:09;98424.00;;;19.70
35582;BMP180;21687;48.900;9.188;2022-09-02T08:12:36;98422.00;;;19.70
35582;BMP180;21687;48.900;9.188;2022-09-02T08:15:04;98430.00;;;20.00
35582;BMP180;21687;48.900;9.188;2022-09-02T08:17:31;98418.00;;;19.90
35582;BMP180;21687;48.900;9.188;2022-09-02T08:19:57;98419.00;;;20.10
35582;BMP180;21687;48.900;9.188;2022-09-02T08:22:23;98429.00;;;20.10
35582;BMP180;21687;48.900;9.188;2022-09-02T08:24:50;98429.00;;;20.00
35582;BMP180;21687;48.900;9.188;2022-09-02T08:27:17;98420.00;;;20.40
35582;BMP180;21687;48.900;9.188;2022-09-02T08:29:43;98419.00;;;20.10
35582;BMP180;21687;48.900;9.188;2022-09-02T08:32:09;98417.00;;;20.00
35582;BMP180;21687;48.900;9.188;2022-09-02T08:34:35;98424.00;;;19.90
35582;BMP180;21687;48.900;9.188;2022-09-02T08:37:02;98419.00;;;20.00
35582;BMP180;21687;48.900;9.188;2022-09-02T08:39:28;98428.00;;;20.00
35582;BMP180;21687;48.900;9.188;2022-09-02T08:42:13;98420.00;;;19.60
35582;BMP180;21687;48.900;9.188;2022-09-02T08:44:40;98420.00;;;19.70
35582;BMP180;21687;48.900;9.188;2022-09-02T08:47:11;98418.00;;;19.40
35582;BMP180;21687;48.900;9.188;2022-09-02T08:49:42;98420.00;;;19.70
35582;BMP180;21687;48.900;9.188;2022-09-02T08:52:15;98418.00;;;19.70
35582;BMP180;21687;48.900;9.188;2022-09-02T08:54:51;98412.00;;;19.50
35582;BMP180;21687;48.900;9.188;2022-09-02T08:57:21;98418.00;;;19.60
35582;BMP180;21687;48.900;9.188;2022-09-02T08:59:50;98409.00;;;19.50
35582;BMP180;21687;48.900;9.188;2022-09-02T09:05:44;98396.00;;;19.40
35582;BMP180;21687;48.900;9.188;2022-09-02T09:11:27;98400.00;;;19.40
35582;BMP180;21687;48.900;9.188;2022-09-02T09:14:16;98397.00;;;19.50
35582;BMP180;21687;48.900;9.188;2022-09-02T09:17:24;98400.00;;;19.70
35582;BMP180;21687;48.900;9.188;2022-09-02T09:19:54;98396.00;;;19.60
35582;BMP180;21687;48.900;9.188;2022-09-02T09:22:34;98384.00;;;19.60
35582;BMP180;21687;48.900;9.188;2022-09-02T09:25:07;98403.00;;;19.60
35582;BMP180;21687;48.900;9.188;2022-09-02T09:27:36;98380.00;;;19.70
35582;BMP180;21687;48.900;9.188;2022-09-02T09:30:02;98386.00;;;19.80
35582;BMP180;21687;48.900;9.188;2022-09-02T09:32:40;98377.00;;;19.90
35582;BMP180;21687;48.900;9.188;2022-09-02T09:35:17;98382.00;;;19.90
35582;BMP180;21687;48.900;9.188;2022-09-02T09:37:46;98375.00;;;20.00
35582;BMP180;21687;48.900;9.188;2022-09-02T09:45:34;98372.00;;;20.20
35582;BMP180;21687;48.900;9.188;2022-09-02T09:53:25;98366.00;;;20.30
35582;BMP180;21687;48.900;9.188;2022-09-02T09:56:07;98370.00;;;20.30
35582;BMP180;21687;48.900;9.188;2022-09-02T09:58:48;98361.00;;;20.40
35582;BMP180;21687;48.900;9.188;2022-09-02T10:01:22;98360.00;;;20.40
35582;BMP180;21687;48.900;9.188;2022-09-02T10:03:52;98373.00;;;20.40
35582;BMP180;21687;48.900;9.188;2022-09-02T10:06:24;98358.00;;;20.40
35582;BMP180;21687;48.900;9.188;2022-09-02T10:11:30;98369.00;;;20.60
35582;BMP180;21687;48.900;9.188;2022-09-02T10:14:08;98355.00;;;20.80
35582;BMP180;21687;48.900;9.188;2022-09-02T10:19:41;98344.00;;;20.90
35582;BMP180;21687;48.900;9.188;2022-09-02T10:28:53;98354.00;;;21.00
35582;BMP180;21687;48.900;9.188;2022-09-02T10:31:47;98350.00;;;20.80
35582;BMP180;21687;48.900;9.188;2022-09-02T10:37:22;98343.00;;;21.10
35582;BMP180;21687;48.900;9.188;2022-09-02T10:40:09;98336.00;;;21.10
35582;BMP180;21687;48.900;9.188;2022-09-02T10:43:03;98338.00;;;21.30
35582;BMP180;21687;48.900;9.188;2022-09-02T10:45:36;98340.00;;;21.30
35582;BMP180;21687;48.900;9.188;2022-09-02T10:53:24;98324.00;;;21.30
35582;BMP180;21687;48.900;9.188;2022-09-02T10:56:00;98318.00;;;21.50
35582;BMP180;21687;48.900;9.188;2022-09-02T10:58:55;98317.00;;;21.40
35582;BMP180;21687;48.900;9.188;2022-09-02T11:01:36;98313.00;;;21.40
35582;BMP180;21687;48.900;9.188;2022-09-02T11:04:18;98307.00;;;21.50
35582;BMP180;21687;48.900;9.188;2022-09-02T11:06:46;98302.00;;;21.50
35582;BMP180;21687;48.900;9.188;2022-09-02T11:11:58;98291.00;;;21.70
35582;BMP180;21687;48.900;9.188;2022-09-02T11:14:48;98304.00;;;21.80
35582;BMP180;21687;48.900;9.188;2022-09-02T11:17:33;98290.00;;;21.80
35582;BMP180;21687;48.900;9.188;2022-09-02T11:20:08;98283.00;;;21.80
35582;BMP180;21687;48.900;9.188;2022-09-02T11:25:24;98278.00;;;22.00
35582;BMP180;21687;48.900;9.188;2022-09-02T11:28:03;98270.00;;;22.10
35582;BMP180;21687;48.900;9.188;2022-09-02T11:36:16;98280.00;;;22.10
35582;BMP180;21687;48.900;9.188;2022-09-02T11:41:24;98278.00;;;22.00
35582;BMP180;21687;48.900;9.188;2022-09-02T12:03:28;98273.00;;;22.20
35582;BMP180;21687;48.900;9.188;2022-09-02T12:06:12;98284.00;;;22.30
35582;BMP180;21687;48.900;9.188;2022-09-02T12:13:55;98272.00;;;22.40
35582;BMP180;21687;48.900;9.188;2022-09-02T12:21:27;98275.00;;;22.30
35582;BMP180;21687;48.900;9.188;2022-09-02T12:31:53;98270.00;;;22.70
35582;BMP180;21687;48.900;9.188;2022-09-02T12:36:53;98253.00;;;22.60
35582;BMP180;21687;48.900;9.188;2022-09-02T12:45:10;98254.00;;;22.90
35582;BMP180;21687;48.900;9.188;2022-09-02T12:48:17;98242.00;;;22.90
35582;BMP180;21687;48.900;9.188;2022-09-02T12:50:53;98249.00;;;22.80
35582;BMP180;21687;48.900;9.188;2022-09-02T12:53:28;98245.00;;;22.90
35582;BMP180;21687;48.900;9.188;2022-09-02T12:59:06;98242.00;;;22.90
35582;BMP180;21687;48.900;9.188;2022-09-02T13:02:05;98231.00;;;22.80
35582;BMP180;21687;48.900;9.188;2022-09-02T13:16:06;98228.00;;;22.90
35582;BMP180;21687;48.900;9.188;2022-09-02T13:21:37;98222.00;;;22.90
35582;BMP180;21687;48.900;9.188;2022-09-02T13:26:52;98218.00;;;23.00
35582;BMP180;21687;48.900;9.188;2022-09-02T13:29:51;98208.00;;;23.20
35582;BMP180;21687;48.900;9.188;2022-09-02T13:32:26;98201.00;;;23.00
35582;BMP180;21687;48.900;9.188;2022-09-02T13:34:55;98200.00;;;22.90
35582;BMP180;21687;48.900;9.188;2022-09-02T13:37:35;98202.00;;;23.00
35582;BMP180;21687;48.900;9.188;2022-09-02T13:40:15;98197.00;;;23.20
35582;BMP180;21687;48.900;9.188;2022-09-02T13:42:51;98195.00;;;23.10
35582;BMP180;21687;48.900;9.188;2022-09-02T13:45:23;98183.00;;;23.20
35582;BMP180;21687;48.900;9.188;2022-09-02T13:47:53;98187.00;;;23.20
35582;BMP180;21687;48.900;9.188;2022-09-02T13:50:25;98183.00;;;23.30
35582;BMP180;21687;48.900;9.188;2022-09-02T13:53:03;98183.00;;;23.20
35582;BMP180;21687;48.900;9.188;2022-09-02T13:55:31;98171.00;;;23.20
35582;BMP180;21687;48.900;9.188;2022-09-02T13:58:07;98172.00;;;23.20
35582;BMP180;21687;48.900;9.188;2022-09-02T14:00:44;98178.00;;;23.40
35582;BMP180;21687;48.900;9.188;2022-09-02T14:03:17;98166.00;;;23.40
35582;BMP180;21687;48.900;9.188;2022-09-02T14:05:48;98168.00;;;23.30
35582;BMP180;21687;48.900;9.188;2022-09-02T14:08:18;98169.00;;;23.40
35582;BMP180;21687;48.900;9.188;2022-09-02T14:10:45;98152.00;;;23.40
35582;BMP180;21687;48.900;9.188;2022-09-02T14:13:14;98160.00;;;23.40
35582;BMP180;21687;48.900;9.188;2022-09-02T14:15:41;98155.00;;;23.40
35582;BMP180;21687;48.900;9.188;2022-09-02T14:18:21;98149.00;;;23.20
35582;BMP180;21687;48.900;9.188;2022-09-02T14:23:36;98137.00;;;23.30
35582;BMP180;21687;48.900;9.188;2022-09-02T14:26:04;98142.00;;;23.30
35582;BMP180;21687;48.900;9.188;2022-09-02T14:28:33;98135.00;;;23.40
35582;BMP180;21687;48.900;9.188;2022-09-02T14:31:06;98138.00;;;23.40
35582;BMP180;21687;48.900;9.188;2022-09-02T14:33:43;98132.00;;;23.40
35582;BMP180;21687;48.900;9.188;2022-09-02T14:38:49;98121.00;;;23.30
35582;BMP180;21687;48.900;9.188;2022-09-02T14:43:54;98120.00;;;23.20
35582;BMP180;21687;48.900;9.188;2022-09-02T14:48:57;98112.00;;;23.10
35582;BMP180;21687;48.900;9.188;2022-09-02T14:51:30;98111.00;;;23.20
35582;BMP180;21687;48.900;9.188;2022-09-02T14:53:57;98110.00;;;23.20
35582;BMP180;21687;48.900;9.188;2022-09-02T14:56:43;98117.00;;;23.20
35582;BMP180;21687;48.900;9.188;2022-09-02T14:59:09;98113.00;;;23.20
35582;BMP180;21687;48.900;9.188;2022-09-02T15:01:40;98116.00;;;23.20
35582;BMP180;21687;48.900;9.188;2022-09-02T15:04:08;98119.00;;;23.10
35582;BMP180;21687;48.900;9.188;2022-09-02T15:06:34;98124.00;;;23.10
35582;BMP180;21687;48.900;9.188;2022-09-02T15:09:00;98123.00;;;23.20
35582;BMP180;21687;48.900;9.188;2022-09-02T15:11:27;98112.00;;;23.20
35582;BMP180;21687;48.900;9.188;2022-09-02T15:13:53;98109.00;;;23.30
35582;BMP180;21687;48.900;9.188;2022-09-02T15:16:19;98108.00;;;23.20
35582;BMP180;21687;48.900;9.188;2022-09-02T15:18:46;98102.00;;;23.20
35582;BMP180;21687;48.900;9.188;2022-09-02T15:21:12;98102.00;;;23.20
35582;BMP180;21687;48.900;9.188;2022-09-02T15:23:38;98106.00;;;23.20
35582;BMP180;21687;48.900;9.188;2022-09-02T15:26:06;98106.00;;;23.20
35582;BMP180;21687;48.900;9.188;2022-09-02T15:28:33;98098.00;;;23.20
35582;BMP180;21687;48.900;9.188;2022-09-02T15:31:01;98104.00;;;23.10
35582;BMP180;21687;48.900;9.188;2022-09-02T15:33:27;98104.00;;;23.00
35582;BMP180;21687;48.900;9.188;2022-09-02T15:35:54;98099.00;;;23.10
35582;BMP180;21687;48.900;9.188;2022-09-02T15:38:29;98106.00;;;23.10
35582;BMP180;21687;48.900;9.188;2022-09-02T15:40:55;98098.00;;;23.10
35582;BMP180;21687;48.900;9.188;2022-09-02T15:43:21;98113.00;;;23.10
35582;BMP180;21687;48.900;9.188;2022-09-02T15:45:48;98113.00;;;23.00
35582;BMP180;21687;48.900;9.188;2022-09-02T15:48:14;98114.00;;;23.00
35582;BMP180;21687;48.900;9.188;2022-09-02T15:50:41;98125.00;;;23.00
35582;BMP180;21687;48.900;9.188;2022-09-02T15:53:07;98113.00;;;22.90
35582;BMP180;21687;48.900;9.188;2022-09-02T15:55:34;98121.00;;;22.80
35582;BMP180;21687;48.900;9.188;2022-09-02T15:58:01;98129.00;;;22.70
35582;BMP180;21687;48.900;9.188;2022-09-02T16:00:27;98127.00;;;22.70
35582;BMP180;21687;48.900;9.188;2022-09-02T16:02:56;98123.00;;;22.70
35582;BMP180;21687;48.900;9.188;2022-09-02T16:05:24;98122.00;;;22.70
35582;BMP180;21687;48.900;9.188;2022-09-02T16:07:50;98123.00;;;22.70
35582;BMP180;21687;48.900;9.188;2022-09-02T16:10:19;98113.00;;;22.60
35582;BMP180;21687;48.900;9.188;2022-09-02T16:12:46;98115.00;;;22.50
35582;BMP180;21687;48.900;9.188;2022-09-02T16:15:13;98105.00;;;22.60
35582;BMP180;21687;48.900;9.188;2022-09-02T16:17:39;98111.00;;;22.50
35582;BMP180;21687;48.900;9.188;2022-09-02T16:20:07;98116.00;;;22.40
35582;BMP180;21687;48.900;9.188;2022-09-02T16:22:33;98115.00;;;22.30
35582;BMP180;21687;48.900;9.188;2022-09-02T16:24:59;98109.00;;;22.20
35582;BMP180;21687;48.900;9.188;2022-09-02T16:27:26;98110.00;;;22.20
35582;BMP180;21687;48.900;9.188;2022-09-02T16:30:11;98106.00;;;22.20
35582;BMP180;21687;48.900;9.188;2022-09-02T16:32:37;98110.00;;;22.10
35582;BMP180;21687;48.900;9.188;2022-09-02T16:35:06;98113.00;;;22.20
35582;BMP180;21687;48.900;9.188;2022-09-02T16:37:32;98118.00;;;22.10